Time;durP1;ratioP1;P1;durP2;ratioP2;P2;SDS_P1;SDS_P2;PMS_P1;PMS_P2;Temp;Humidity;BMP_temperature;BMP_pressure;BME280_temperature;BME280_humidity;BME280_pressure;Samples;Min_cycle;Max_cycle;Signal;HPM_P1;HPM_P2
2022/10/15 00:00:48;;;;;;;0.30;0.30;;;15.10;99.90;;;;;;5013830;28;20782;-72
2022/10/15 00:03:14;;;;;;;0.30;0.30;;;15.20;99.90;;;;;;5014015;28;20424;-71
2022/10/15 00:05:41;;;;;;;0.30;0.30;;;15.20;99.90;;;;;;5014054;28;20179;-71
2022/10/15 00:08:08;;;;;;;0.30;0.30;;;15.20;99.90;;;;;;5013792;28;20473;-71
2022/10/15 00:10:36;;;;;;;0.40;0.40;;;15.20;99.90;;;;;;5013580;28;20914;-71
2022/10/15 00:13:03;;;;;;;0.30;0.30;;;15.20;99.90;;;;;;5013916;28;20410;-72
2022/10/15 00:15:28;;;;;;;0.30;0.30;;;15.30;99.90;;;;;;5013829;28;20535;-71
2022/10/15 00:17:54;;;;;;;0.30;0.30;;;15.30;99.90;;;;;;5014062;28;20545;-71
2022/10/15 00:20:20;;;;;;;0.30;0.30;;;15.40;99.90;;;;;;5013536;28;20179;-70
2022/10/15 00:22:46;;;;;;;0.30;0.30;;;15.30;99.90;;;;;;5012473;28;20405;-70
2022/10/15 00:25:12;;;;;;;0.30;0.30;;;15.30;99.90;;;;;;5013780;28;20425;-72
2022/10/15 00:27:37;;;;;;;0.30;0.30;;;15.30;99.90;;;;;;5013607;28;20203;-72
2022/10/15 00:30:04;;;;;;;0.30;0.30;;;15.40;99.90;;;;;;5013453;28;20179;-70
2022/10/15 00:32:31;;;;;;;0.30;0.30;;;15.40;99.90;;;;;;5014238;28;20265;-70
2022/10/15 00:34:56;;;;;;;0.40;0.40;;;15.40;99.90;;;;;;5013700;28;20526;-72
2022/10/15 00:37:22;;;;;;;0.30;0.30;;;15.30;99.90;;;;;;5013432;28;20513;-70
2022/10/15 00:39:48;;;;;;;0.30;0.30;;;15.30;99.90;;;;;;5013488;28;20628;-73
2022/10/15 00:42:14;;;;;;;0.50;0.40;;;15.40;99.90;;;;;;5013587;28;20410;-72
2022/10/15 00:44:52;;;;;;;0.30;0.30;;;15.40;99.90;;;;;;5013649;28;20523;-72
2022/10/15 00:47:25;;;;;;;0.30;0.30;;;15.50;99.90;;;;;;5013350;28;20216;-71
2022/10/15 00:50:07;;;;;;;0.43;0.43;;;15.40;99.90;;;;;;5011726;28;21012;-73
2022/10/15 00:52:37;;;;;;;0.30;0.30;;;15.40;99.90;;;;;;5013237;28;20411;-71
2022/10/15 00:55:09;;;;;;;0.30;0.30;;;15.30;99.90;;;;;;5013566;28;20418;-72
2022/10/15 00:57:35;;;;;;;0.40;0.40;;;15.20;99.90;;;;;;5013471;28;20428;-71
2022/10/15 01:00:07;;;;;;;0.30;0.30;;;15.20;99.90;;;;;;5012259;28;20458;-71
2022/10/15 01:02:33;;;;;;;0.30;0.30;;;15.20;99.90;;;;;;5012610;28;20408;-69
2022/10/15 01:04:59;;;;;;;0.40;0.40;;;15.20;99.90;;;;;;5012304;28;20938;-72
2022/10/15 01:07:25;;;;;;;0.40;0.40;;;15.10;99.90;;;;;;5013841;28;20192;-70
2022/10/15 01:09:51;;;;;;;1.00;0.60;;;15.10;99.90;;;;;;5013532;28;20406;-70
2022/10/15 01:12:26;;;;;;;0.40;0.40;;;15.10;99.90;;;;;;5013188;28;20403;-69
2022/10/15 01:15:11;;;;;;;0.53;0.53;;;15.10;99.90;;;;;;5013122;28;20498;-71
2022/10/15 01:17:41;;;;;;;0.30;0.30;;;15.00;99.90;;;;;;5013273;28;20828;-69
2022/10/15 01:20:40;;;;;;;0.40;0.40;;;15.00;99.90;;;;;;5012973;28;20779;-69
2022/10/15 01:23:36;;;;;;;0.30;0.30;;;15.00;99.90;;;;;;5016443;28;20415;-73
2022/10/15 01:26:39;;;;;;;0.30;0.30;;;15.10;99.90;;;;;;5015581;28;20422;-71
2022/10/15 01:29:30;;;;;;;0.30;0.30;;;15.10;99.90;;;;;;5016584;28;20501;-70
2022/10/15 01:32:05;;;;;;;0.50;0.50;;;15.30;99.90;;;;;;5017218;28;20411;-73
2022/10/15 01:34:37;;;;;;;0.33;0.33;;;15.30;99.90;;;;;;5017138;28;20416;-72
2022/10/15 01:37:16;;;;;;;0.40;0.40;;;15.40;99.90;;;;;;5016704;28;20494;-71
2022/10/15 01:40:09;;;;;;;0.30;0.30;;;15.40;99.90;;;;;;5016735;28;20395;-70
2022/10/15 01:42:57;;;;;;;0.30;0.30;;;15.40;99.90;;;;;;5011731;28;20428;-74
2022/10/15 01:45:39;;;;;;;0.30;0.30;;;15.50;99.90;;;;;;5016284;28;20860;-71
2022/10/15 01:48:10;;;;;;;0.30;0.30;;;15.40;99.90;;;;;;5016666;28;20438;-72
2022/10/15 01:50:43;;;;;;;0.30;0.30;;;15.20;99.90;;;;;;5016425;28;20493;-69
2022/10/15 01:53:12;;;;;;;0.30;0.30;;;15.20;99.90;;;;;;5016668;28;20831;-72
2022/10/15 01:55:43;;;;;;;0.30;0.30;;;15.20;99.90;;;;;;5016519;28;20488;-68
2022/10/15 01:58:12;;;;;;;0.30;0.30;;;15.30;99.90;;;;;;5016273;28;20476;-72
2022/10/15 02:00:41;;;;;;;0.67;0.40;;;15.20;99.90;;;;;;5016310;28;20406;-74
2022/10/15 02:03:08;;;;;;;0.30;0.30;;;15.30;99.90;;;;;;5016224;28;20403;-73
2022/10/15 02:05:57;;;;;;;0.30;0.30;;;15.30;99.90;;;;;;5013717;28;20442;-70
2022/10/15 02:08:40;;;;;;;0.30;0.30;;;15.40;99.90;;;;;;5014092;28;20429;-70
2022/10/15 02:11:16;;;;;;;0.40;0.40;;;15.40;99.90;;;;;;5015405;28;20413;-71
2022/10/15 02:14:07;;;;;;;0.30;0.30;;;15.50;99.90;;;;;;5013877;28;20418;-71
2022/10/15 02:16:42;;;;;;;0.30;0.30;;;15.40;99.90;;;;;;5015369;28;20545;-72
2022/10/15 02:19:31;;;;;;;0.30;0.30;;;15.30;99.90;;;;;;5013975;28;20407;-70
2022/10/15 02:22:10;;;;;;;0.30;0.30;;;15.30;99.90;;;;;;5015890;28;20397;-70
2022/10/15 02:25:01;;;;;;;0.30;0.30;;;15.40;99.90;;;;;;5015878;28;20398;-70
2022/10/15 02:27:28;;;;;;;0.30;0.30;;;15.30;99.90;;;;;;5015651;28;21001;-72
2022/10/15 02:29:57;;;;;;;0.40;0.40;;;15.30;99.90;;;;;;5013954;28;20402;-71
2022/10/15 02:32:24;;;;;;;0.30;0.30;;;15.30;99.90;;;;;;5015301;28;20405;-71
2022/10/15 02:34:51;;;;;;;0.30;0.30;;;15.30;99.90;;;;;;5014655;28;20457;-68
2022/10/15 02:37:21;;;;;;;0.50;0.50;;;15.40;99.90;;;;;;5015382;28;20970;-71
2022/10/15 02:39:47;;;;;;;0.30;0.30;;;15.40;99.90;;;;;;5015196;28;20490;-71
2022/10/15 02:42:15;;;;;;;0.50;0.50;;;15.30;99.90;;;;;;5015508;28;20455;-71
2022/10/15 02:44:41;;;;;;;0.30;0.30;;;15.10;99.90;;;;;;5015504;28;20178;-70
2022/10/15 02:47:06;;;;;;;0.30;0.30;;;15.10;99.90;;;;;;5015064;28;20446;-70
2022/10/15 02:49:32;;;;;;;0.30;0.30;;;15.20;99.90;;;;;;5015041;28;20172;-72
2022/10/15 02:51:58;;;;;;;0.40;0.40;;;15.30;99.90;;;;;;5015269;28;20171;-72
2022/10/15 02:54:23;;;;;;;0.30;0.30;;;15.20;99.90;;;;;;5015021;28;20211;-69
2022/10/15 02:56:50;;;;;;;0.40;0.40;;;15.10;99.90;;;;;;5014895;28;20465;-69
2022/10/15 02:59:17;;;;;;;0.30;0.30;;;15.10;99.90;;;;;;5015017;28;20214;-72
2022/10/15 03:01:43;;;;;;;0.30;0.30;;;15.10;99.90;;;;;;5014855;28;20406;-69
2022/10/15 03:04:08;;;;;;;0.60;0.60;;;15.10;99.90;;;;;;5015050;28;20402;-71
2022/10/15 03:06:34;;;;;;;0.30;0.30;;;15.20;99.90;;;;;;5014930;28;20191;-69
2022/10/15 03:08:59;;;;;;;0.30;0.30;;;15.10;99.90;;;;;;5014576;28;20699;-71
2022/10/15 03:11:25;;;;;;;0.30;0.30;;;15.20;99.90;;;;;;5014950;28;20168;-70
2022/10/15 03:13:51;;;;;;;0.30;0.30;;;15.20;99.90;;;;;;5014940;28;20263;-70
2022/10/15 03:16:16;;;;;;;0.30;0.30;;;15.20;99.90;;;;;;5014628;28;20275;-71
2022/10/15 03:18:42;;;;;;;0.40;0.40;;;15.20;99.90;;;;;;5014639;28;20176;-69
2022/10/15 03:21:08;;;;;;;0.30;0.30;;;15.10;99.90;;;;;;5014569;28;20203;-72
2022/10/15 03:23:34;;;;;;;0.30;0.30;;;15.10;99.90;;;;;;5014738;28;20175;-70
2022/10/15 03:26:00;;;;;;;0.30;0.30;;;15.10;99.90;;;;;;5014537;28;20502;-71
2022/10/15 03:28:25;;;;;;;0.30;0.30;;;15.10;99.90;;;;;;5014349;28;20465;-70
2022/10/15 03:30:51;;;;;;;0.30;0.30;;;15.10;99.90;;;;;;5014396;28;20633;-71
2022/10/15 03:33:16;;;;;;;0.30;0.30;;;15.10;99.90;;;;;;5014633;28;20178;-69
2022/10/15 03:35:42;;;;;;;0.30;0.30;;;15.10;99.90;;;;;;5014425;28;20654;-72
2022/10/15 03:38:08;;;;;;;0.30;0.30;;;15.10;99.90;;;;;;5014629;28;20742;-68
2022/10/15 03:40:34;;;;;;;0.30;0.30;;;15.10;99.90;;;;;;5012902;28;20175;-71
2022/10/15 03:43:00;;;;;;;0.33;0.33;;;15.10;99.90;;;;;;5014352;28;20251;-70
2022/10/15 03:45:25;;;;;;;0.30;0.30;;;15.00;99.90;;;;;;5013767;28;20973;-69
2022/10/15 03:47:51;;;;;;;0.30;0.30;;;15.10;99.90;;;;;;5014136;28;20211;-69
2022/10/15 03:50:17;;;;;;;0.30;0.30;;;15.00;99.90;;;;;;5013901;28;20171;-71
2022/10/15 03:52:49;;;;;;;0.30;0.30;;;15.00;99.90;;;;;;5014096;28;20222;-70
2022/10/15 03:55:15;;;;;;;0.30;0.30;;;15.00;99.90;;;;;;5013997;28;20238;-68
2022/10/15 03:57:41;;;;;;;0.30;0.30;;;15.00;99.90;;;;;;5012678;28;20430;-72
2022/10/15 04:00:08;;;;;;;0.30;0.30;;;15.00;99.90;;;;;;5013786;28;20169;-69
2022/10/15 04:02:34;;;;;;;0.30;0.30;;;15.10;99.90;;;;;;5014013;28;20893;-70
2022/10/15 04:05:00;;;;;;;0.30;0.30;;;15.10;99.90;;;;;;5014474;28;20419;-71
2022/10/15 04:07:25;;;;;;;0.30;0.30;;;15.10;99.90;;;;;;5013791;28;20669;-72
2022/10/15 04:09:51;;;;;;;0.30;0.30;;;15.00;99.90;;;;;;5013877;28;20168;-70
2022/10/15 04:12:17;;;;;;;0.30;0.30;;;15.00;99.90;;;;;;5013917;28;20167;-70
2022/10/15 04:14:42;;;;;;;0.30;0.30;;;15.10;99.90;;;;;;5013968;28;20527;-70
2022/10/15 04:17:09;;;;;;;0.30;0.30;;;15.10;99.90;;;;;;5013843;28;20668;-70
2022/10/15 04:19:35;;;;;;;0.30;0.30;;;15.10;99.90;;;;;;5013463;28;20169;-70
2022/10/15 04:22:01;;;;;;;0.33;0.33;;;15.10;99.90;;;;;;5013692;28;20743;-70
2022/10/15 04:24:26;;;;;;;0.90;0.90;;;15.10;99.90;;;;;;5013703;28;20402;-72
2022/10/15 04:26:52;;;;;;;0.40;0.40;;;15.00;99.90;;;;;;5013634;28;20675;-71
2022/10/15 04:29:18;;;;;;;0.40;0.40;;;15.00;99.90;;;;;;5013642;28;20180;-71
2022/10/15 04:31:44;;;;;;;0.30;0.30;;;14.90;99.90;;;;;;5013795;28;20175;-72
2022/10/15 04:34:10;;;;;;;0.30;0.30;;;14.90;99.90;;;;;;5013861;28;20404;-71
2022/10/15 04:36:36;;;;;;;0.30;0.30;;;14.90;99.90;;;;;;5013687;28;20478;-71
2022/10/15 04:39:03;;;;;;;0.40;0.40;;;14.80;99.90;;;;;;5012163;28;20809;-70
2022/10/15 04:41:29;;;;;;;0.30;0.30;;;14.70;99.90;;;;;;5013786;28;20404;-72
2022/10/15 04:43:56;;;;;;;0.30;0.30;;;14.80;99.90;;;;;;5013487;28;20409;-70
2022/10/15 04:46:22;;;;;;;0.30;0.30;;;14.70;99.90;;;;;;5013381;28;20438;-69
2022/10/15 04:48:48;;;;;;;0.70;0.40;;;14.70;99.90;;;;;;5013260;28;20410;-72
2022/10/15 04:51:17;;;;;;;0.40;0.40;;;14.70;99.90;;;;;;5012276;28;20309;-70
2022/10/15 04:53:43;;;;;;;0.30;0.30;;;14.70;99.90;;;;;;5013516;28;20553;-71
2022/10/15 04:56:16;;;;;;;0.40;0.40;;;14.70;99.90;;;;;;5013594;28;20478;-71
2022/10/15 04:58:43;;;;;;;0.30;0.30;;;14.70;99.90;;;;;;5017326;28;20474;-70
2022/10/15 05:01:12;;;;;;;0.30;0.30;;;14.60;99.90;;;;;;5016959;28;20403;-71
2022/10/15 05:03:38;;;;;;;0.30;0.30;;;14.50;99.90;;;;;;5017354;28;20916;-71
2022/10/15 05:06:07;;;;;;;0.30;0.30;;;14.50;99.90;;;;;;5017173;28;20965;-70
2022/10/15 05:08:34;;;;;;;0.30;0.30;;;14.60;99.90;;;;;;5017137;28;20849;-69
2022/10/15 05:11:12;;;;;;;0.30;0.30;;;14.60;99.90;;;;;;5016994;28;20403;-68
2022/10/15 05:13:38;;;;;;;0.30;0.30;;;14.70;99.90;;;;;;5017162;28;20390;-71
2022/10/15 05:16:19;;;;;;;0.30;0.30;;;14.70;99.90;;;;;;5017231;28;20520;-68
2022/10/15 05:18:47;;;;;;;0.30;0.30;;;14.80;99.90;;;;;;5017032;28;20170;-70
2022/10/15 05:21:14;;;;;;;0.30;0.30;;;14.80;99.90;;;;;;5016972;28;20434;-70
2022/10/15 05:23:40;;;;;;;0.30;0.30;;;14.80;99.90;;;;;;5017019;28;20402;-72
2022/10/15 05:26:09;;;;;;;0.33;0.33;;;14.80;99.90;;;;;;5016942;28;20435;-71
2022/10/15 05:28:35;;;;;;;0.30;0.30;;;14.70;99.90;;;;;;5015391;28;20438;-71
2022/10/15 05:31:18;;;;;;;0.40;0.40;;;14.60;99.90;;;;;;5016434;28;20739;-71
2022/10/15 05:33:47;;;;;;;0.30;0.30;;;14.60;99.90;;;;;;5016862;28;20495;-71
2022/10/15 05:36:22;;;;;;;0.30;0.30;;;14.60;99.90;;;;;;5016576;28;20800;-70
2022/10/15 05:38:50;;;;;;;0.30;0.30;;;14.50;99.90;;;;;;5016337;28;20404;-70
2022/10/15 05:41:16;;;;;;;0.30;0.30;;;14.50;99.90;;;;;;5016705;28;20490;-71
2022/10/15 05:43:44;;;;;;;0.40;0.40;;;14.60;99.90;;;;;;5016529;28;20761;-70
2022/10/15 05:46:10;;;;;;;0.30;0.30;;;14.60;99.90;;;;;;5016323;28;20940;-69
2022/10/15 05:48:36;;;;;;;0.30;0.30;;;14.60;99.90;;;;;;5016542;28;20549;-71
2022/10/15 05:51:03;;;;;;;0.30;0.30;;;14.60;99.90;;;;;;5016258;28;20194;-71
2022/10/15 05:53:29;;;;;;;0.30;0.30;;;14.70;99.90;;;;;;5016446;28;20172;-71
2022/10/15 05:55:57;;;;;;;0.90;0.90;;;14.60;99.90;;;;;;5016065;28;20779;-69
2022/10/15 05:58:27;;;;;;;0.40;0.40;;;14.60;99.90;;;;;;5016104;28;20598;-69
2022/10/15 06:00:56;;;;;;;0.47;0.37;;;14.70;99.90;;;;;;5016142;28;20453;-72
2022/10/15 06:03:23;;;;;;;0.33;0.33;;;14.70;99.90;;;;;;5015809;28;20431;-69
2022/10/15 06:05:49;;;;;;;0.30;0.30;;;14.70;99.90;;;;;;5016212;28;20434;-70
2022/10/15 06:08:15;;;;;;;0.90;0.90;;;14.70;99.90;;;;;;5015699;28;20435;-70
2022/10/15 06:10:41;;;;;;;0.30;0.30;;;14.70;99.90;;;;;;5015886;28;20418;-69
2022/10/15 06:13:07;;;;;;;0.60;0.50;;;14.70;99.90;;;;;;5015995;28;20980;-70
2022/10/15 06:15:33;;;;;;;0.50;0.50;;;14.60;99.90;;;;;;5015786;28;20507;-70
2022/10/15 06:17:59;;;;;;;1.37;1.27;;;14.60;99.90;;;;;;5015841;28;20192;-71
2022/10/15 06:20:25;;;;;;;0.30;0.30;;;14.70;99.90;;;;;;5015420;28;20896;-69
2022/10/15 06:22:56;;;;;;;0.30;0.30;;;14.70;99.90;;;;;;5016095;28;20403;-71
2022/10/15 06:25:21;;;;;;;0.40;0.40;;;14.60;99.90;;;;;;5016024;28;20410;-70
2022/10/15 06:27:47;;;;;;;0.60;0.60;;;14.60;99.90;;;;;;5015510;28;20430;-71
2022/10/15 06:30:13;;;;;;;0.40;0.40;;;14.60;99.90;;;;;;5015391;28;20171;-70
2022/10/15 06:32:38;;;;;;;0.50;0.50;;;14.50;99.90;;;;;;5015605;28;20176;-69
2022/10/15 06:35:04;;;;;;;0.40;0.40;;;14.60;99.90;;;;;;5015850;28;20175;-69
2022/10/15 06:37:30;;;;;;;0.63;0.63;;;14.60;99.90;;;;;;5015333;28;20637;-70
2022/10/15 06:39:56;;;;;;;0.50;0.50;;;14.70;99.90;;;;;;5015246;28;20414;-69
2022/10/15 06:42:21;;;;;;;0.30;0.30;;;14.70;99.90;;;;;;5015430;28;20593;-72
2022/10/15 06:44:47;;;;;;;0.40;0.30;;;14.80;99.90;;;;;;5015462;28;20250;-68
2022/10/15 06:47:13;;;;;;;0.30;0.30;;;14.70;99.90;;;;;;5013680;28;20623;-68
2022/10/15 06:49:38;;;;;;;1.33;1.03;;;14.70;99.90;;;;;;5015053;28;20179;-69
2022/10/15 06:52:04;;;;;;;0.53;0.53;;;14.80;99.90;;;;;;5015196;28;20180;-71
2022/10/15 06:54:30;;;;;;;0.30;0.30;;;14.70;99.90;;;;;;5015328;28;20198;-71
2022/10/15 06:56:55;;;;;;;1.73;1.07;;;14.70;99.90;;;;;;5015121;28;20203;-71
2022/10/15 06:59:21;;;;;;;0.67;0.67;;;14.80;99.90;;;;;;5014984;28;20164;-72
2022/10/15 07:01:46;;;;;;;0.30;0.30;;;14.80;99.90;;;;;;5014886;28;20226;-68
2022/10/15 07:04:12;;;;;;;0.30;0.30;;;14.80;99.90;;;;;;5014881;28;20164;-70
2022/10/15 07:06:40;;;;;;;0.30;0.30;;;14.70;99.90;;;;;;5014789;28;20691;-71
2022/10/15 07:09:06;;;;;;;0.47;0.47;;;14.70;99.90;;;;;;5014692;28;20180;-69
2022/10/15 07:11:31;;;;;;;0.30;0.30;;;14.60;99.90;;;;;;5013602;28;20750;-72
2022/10/15 07:13:57;;;;;;;0.40;0.40;;;14.60;99.90;;;;;;5014941;28;20273;-69
2022/10/15 07:16:23;;;;;;;0.30;0.30;;;14.80;99.90;;;;;;5014440;28;20202;-69
2022/10/15 07:18:48;;;;;;;0.40;0.40;;;14.70;99.90;;;;;;5014342;28;20531;-71
2022/10/15 07:21:14;;;;;;;0.30;0.30;;;14.70;99.90;;;;;;5014281;28;20912;-70
2022/10/15 07:23:40;;;;;;;0.30;0.30;;;14.80;99.90;;;;;;5014663;28;20169;-68
2022/10/15 07:26:05;;;;;;;0.30;0.30;;;14.80;99.90;;;;;;5013208;28;20662;-71
2022/10/15 07:28:31;;;;;;;0.47;0.47;;;14.90;99.90;;;;;;5014406;28;20193;-70
2022/10/15 07:31:02;;;;;;;0.80;0.50;;;15.00;99.90;;;;;;5014473;28;20176;-71
2022/10/15 07:33:28;;;;;;;0.50;0.50;;;15.10;99.90;;;;;;5014397;28;20176;-72
2022/10/15 07:35:53;;;;;;;0.30;0.30;;;15.20;99.90;;;;;;5014313;28;20513;-69
2022/10/15 07:38:19;;;;;;;1.57;0.50;;;15.30;99.90;;;;;;5014201;28;20237;-70
2022/10/15 07:40:44;;;;;;;0.50;0.40;;;15.20;99.90;;;;;;5014251;28;20171;-70
2022/10/15 07:43:10;;;;;;;1.30;0.60;;;15.20;99.90;;;;;;5014480;28;20593;-70
2022/10/15 07:45:36;;;;;;;0.40;0.40;;;15.30;99.90;;;;;;5014208;28;20185;-70
2022/10/15 07:48:02;;;;;;;0.40;0.40;;;15.10;99.90;;;;;;5014371;28;20275;-71
2022/10/15 07:50:27;;;;;;;0.30;0.30;;;15.00;99.90;;;;;;5014084;28;20957;-73
2022/10/15 07:52:53;;;;;;;0.40;0.40;;;14.90;99.90;;;;;;5013988;28;20225;-71
2022/10/15 07:55:19;;;;;;;0.80;0.47;;;14.90;99.90;;;;;;5014099;28;20175;-72
2022/10/15 07:57:44;;;;;;;0.43;0.43;;;15.00;99.90;;;;;;5014022;28;20687;-68
2022/10/15 08:00:10;;;;;;;0.30;0.30;;;15.10;99.90;;;;;;5013754;28;20182;-70
2022/10/15 08:02:36;;;;;;;0.70;0.60;;;15.20;99.90;;;;;;5013956;28;20676;-69
2022/10/15 08:05:02;;;;;;;0.67;0.67;;;15.10;99.90;;;;;;5013948;28;20406;-71
2022/10/15 08:07:28;;;;;;;0.30;0.30;;;15.10;99.90;;;;;;5013793;28;20199;-71
2022/10/15 08:09:53;;;;;;;0.50;0.50;;;15.10;99.90;;;;;;5012441;28;20502;-73
2022/10/15 08:12:19;;;;;;;0.30;0.30;;;15.10;99.90;;;;;;5013943;28;20179;-71
2022/10/15 08:14:46;;;;;;;0.40;0.40;;;15.10;99.90;;;;;;5011692;28;20182;-69
2022/10/15 08:17:12;;;;;;;0.40;0.40;;;15.10;99.90;;;;;;5011375;28;20259;-71
2022/10/15 08:19:37;;;;;;;0.40;0.40;;;15.20;99.90;;;;;;5013853;28;20724;-72
2022/10/15 08:22:03;;;;;;;0.30;0.30;;;15.40;99.90;;;;;;5013773;28;20200;-70
2022/10/15 08:24:29;;;;;;;0.30;0.30;;;15.60;99.90;;;;;;5011589;28;20655;-69
2022/10/15 08:26:57;;;;;;;0.30;0.30;;;15.70;99.90;;;;;;5013943;28;20191;-73
2022/10/15 08:29:23;;;;;;;1.70;0.97;;;15.70;99.90;;;;;;5013463;28;20542;-72
2022/10/15 08:31:50;;;;;;;0.80;0.60;;;15.80;99.90;;;;;;5016660;28;20401;-72
2022/10/15 08:34:16;;;;;;;0.50;0.50;;;15.80;99.90;;;;;;5017983;28;20402;-70
2022/10/15 08:36:42;;;;;;;0.40;0.40;;;16.00;99.90;;;;;;5017939;28;20491;-73
2022/10/15 08:39:08;;;;;;;0.60;0.60;;;15.90;99.90;;;;;;5017796;28;20425;-74
2022/10/15 08:41:37;;;;;;;0.30;0.30;;;16.00;99.90;;;;;;5018165;28;20401;-69
2022/10/15 08:44:04;;;;;;;0.30;0.30;;;16.20;99.90;;;;;;5017611;28;20979;-71
2022/10/15 08:46:44;;;;;;;0.30;0.30;;;16.30;99.90;;;;;;5015984;28;20491;-73
2022/10/15 08:49:30;;;;;;;0.40;0.40;;;16.50;99.90;;;;;;5017654;28;20485;-71
2022/10/15 08:52:07;;;;;;;0.30;0.30;;;16.50;99.90;;;;;;5010291;28;20413;-71
2022/10/15 08:54:34;;;;;;;0.40;0.40;;;16.50;99.90;;;;;;5017854;28;20994;-71
2022/10/15 08:57:13;;;;;;;0.40;0.40;;;16.40;99.90;;;;;;5017548;28;20580;-70
2022/10/15 08:59:47;;;;;;;0.50;0.50;;;16.40;99.90;;;;;;5017242;28;20405;-68
2022/10/15 09:02:24;;;;;;;0.40;0.40;;;16.40;99.90;;;;;;5017797;28;20406;-72
2022/10/15 09:05:21;;;;;;;0.30;0.30;;;16.20;99.90;;;;;;5017856;28;20404;-72
2022/10/15 09:07:55;;;;;;;0.60;0.60;;;16.20;99.90;;;;;;5017531;28;20516;-73
2022/10/15 09:10:51;;;;;;;0.30;0.30;;;16.30;99.90;;;;;;5017336;28;20452;-73
2022/10/15 09:13:25;;;;;;;0.60;0.60;;;16.40;99.90;;;;;;5017494;28;20402;-71
2022/10/15 09:15:56;;;;;;;0.30;0.30;;;16.30;99.90;;;;;;5016848;28;20470;-70
2022/10/15 09:18:29;;;;;;;1.50;0.50;;;16.30;99.90;;;;;;5017191;28;20476;-69
2022/10/15 09:20:56;;;;;;;0.40;0.40;;;16.30;99.90;;;;;;5017302;28;20536;-72
2022/10/15 09:23:26;;;;;;;0.30;0.30;;;16.30;99.90;;;;;;5017081;28;20460;-73
2022/10/15 09:26:10;;;;;;;0.40;0.30;;;16.30;99.90;;;;;;5015624;28;20409;-72
2022/10/15 09:28:50;;;;;;;0.50;0.40;;;16.30;99.90;;;;;;5016998;28;20487;-72
2022/10/15 09:31:20;;;;;;;0.50;0.40;;;16.30;99.90;;;;;;5017201;28;20400;-70
2022/10/15 09:34:10;;;;;;;0.50;0.50;;;16.30;99.90;;;;;;5017337;28;20876;-70
2022/10/15 09:36:45;;;;;;;0.40;0.40;;;16.30;99.90;;;;;;5015598;28;20456;-70
2022/10/15 09:39:48;;;;;;;1.33;0.77;;;16.20;99.90;;;;;;5014833;28;20903;-69
2022/10/15 09:42:39;;;;;;;0.87;0.87;;;16.10;99.90;;;;;;5015512;28;20414;-70
2022/10/15 09:45:10;;;;;;;0.60;0.50;;;16.10;99.90;;;;;;5016798;28;20907;-71
2022/10/15 09:47:38;;;;;;;0.40;0.40;;;16.00;99.90;;;;;;5016222;28;20552;-69
2022/10/15 09:50:06;;;;;;;0.50;0.50;;;15.90;99.90;;;;;;5016177;28;20406;-70
2022/10/15 09:52:50;;;;;;;4.10;0.70;;;15.80;99.90;;;;;;5016457;28;20467;-73
2022/10/15 09:56:06;;;;;;;0.40;0.40;;;15.80;99.90;;;;;;5016152;28;20406;-71
2022/10/15 09:58:49;;;;;;;0.50;0.50;;;15.60;99.90;;;;;;4974960;28;20463;-70
2022/10/15 10:01:23;;;;;;;0.60;0.47;;;15.80;99.90;;;;;;4974766;28;20504;-73
2022/10/15 10:04:19;;;;;;;0.50;0.50;;;16.00;99.90;;;;;;5001238;28;20877;-72
2022/10/15 10:06:55;;;;;;;0.70;0.50;;;16.20;99.90;;;;;;5012422;28;20452;-70
2022/10/15 10:09:24;;;;;;;0.60;0.60;;;16.30;99.90;;;;;;5015881;28;20890;-71
2022/10/15 10:11:58;;;;;;;0.50;0.40;;;16.50;99.90;;;;;;5015960;28;20409;-72
2022/10/15 10:14:30;;;;;;;0.40;0.40;;;16.60;99.90;;;;;;5016178;28;20902;-70
2022/10/15 10:17:15;;;;;;;0.30;0.30;;;16.80;99.90;;;;;;5015749;28;20855;-73
2022/10/15 10:19:42;;;;;;;0.40;0.40;;;16.90;99.90;;;;;;5015533;28;20787;-72
2022/10/15 10:22:18;;;;;;;0.40;0.40;;;16.80;99.90;;;;;;5015730;28;20399;-72
2022/10/15 10:24:47;;;;;;;0.60;0.53;;;16.80;99.90;;;;;;5015900;28;20398;-72
2022/10/15 10:27:27;;;;;;;0.30;0.30;;;16.80;99.90;;;;;;5014351;28;20522;-71
2022/10/15 10:30:00;;;;;;;0.30;0.30;;;16.80;99.90;;;;;;5015548;28;20405;-72
2022/10/15 10:32:29;;;;;;;1.60;1.37;;;16.90;99.90;;;;;;5015652;28;20402;-73
2022/10/15 10:34:55;;;;;;;0.40;0.40;;;16.90;99.90;;;;;;5015424;28;20398;-71
2022/10/15 10:37:21;;;;;;;0.30;0.30;;;16.90;99.90;;;;;;5015222;28;21037;-73
2022/10/15 10:39:59;;;;;;;0.30;0.30;;;16.90;99.90;;;;;;5015425;28;20406;-73
2022/10/15 10:42:31;;;;;;;0.40;0.40;;;17.00;99.90;;;;;;5015526;28;20406;-71
2022/10/15 10:45:14;;;;;;;0.30;0.30;;;16.90;99.90;;;;;;5015766;28;20429;-73
2022/10/15 10:47:40;;;;;;;1.03;1.03;;;16.90;99.90;;;;;;5015180;28;20497;-72
2022/10/15 10:50:26;;;;;;;0.40;0.40;;;17.20;99.90;;;;;;5015067;28;20411;-73
2022/10/15 10:52:52;;;;;;;0.67;0.50;;;17.30;99.90;;;;;;5013983;28;20187;-73
2022/10/15 10:55:21;;;;;;;0.40;0.40;;;17.30;99.90;;;;;;5014053;28;20408;-73
2022/10/15 10:57:49;;;;;;;0.50;0.50;;;17.40;99.90;;;;;;5014981;28;20946;-73
2022/10/15 11:00:40;;;;;;;0.30;0.30;;;17.60;99.90;;;;;;5014802;28;20403;-71
2022/10/15 11:03:29;;;;;;;0.30;0.30;;;17.70;99.90;;;;;;5015043;28;20497;-72
2022/10/15 11:06:21;;;;;;;0.30;0.30;;;17.90;99.90;;;;;;5008539;28;20486;-72
2022/10/15 11:09:14;;;;;;;0.30;0.30;;;17.80;99.90;;;;;;5014957;28;20412;-73
2022/10/15 11:12:13;;;;;;;0.40;0.40;;;17.80;99.90;;;;;;5013693;28;20403;-73
2022/10/15 11:15:00;;;;;;;0.40;0.40;;;17.40;99.90;;;;;;5014733;28;20406;-73
2022/10/15 11:17:50;;;;;;;0.73;0.60;;;17.20;99.90;;;;;;5014605;28;20509;-72
2022/10/15 11:20:27;;;;;;;0.30;0.30;;;17.20;99.90;;;;;;5014336;28;20391;-72
2022/10/15 11:23:11;;;;;;;0.50;0.50;;;17.10;99.90;;;;;;5014749;28;20481;-73
2022/10/15 11:25:58;;;;;;;0.30;0.30;;;17.10;99.90;;;;;;5014659;28;20508;-71
2022/10/15 11:29:01;;;;;;;0.30;0.30;;;17.10;99.90;;;;;;5014342;28;20426;-72
2022/10/15 11:31:54;;;;;;;0.30;0.30;;;17.20;99.90;;;;;;5014365;28;20399;-71
2022/10/15 11:34:28;;;;;;;0.40;0.40;;;17.30;99.90;;;;;;5014655;28;20788;-72
2022/10/15 11:37:12;;;;;;;0.50;0.50;;;17.50;99.90;;;;;;5012246;28;20454;-73
2022/10/15 11:39:53;;;;;;;0.40;0.40;;;17.80;99.90;;;;;;5014583;28;20910;-71
2022/10/15 11:42:44;;;;;;;0.40;0.40;;;18.10;99.90;;;;;;5014684;28;20418;-73
2022/10/15 11:45:27;;;;;;;0.40;0.40;;;18.50;99.90;;;;;;5014373;28;20436;-73
2022/10/15 11:48:05;;;;;;;0.30;0.30;;;18.90;99.70;;;;;;5010735;28;20444;-70
2022/10/15 11:51:01;;;;;;;0.30;0.30;;;19.30;99.40;;;;;;5013553;28;20442;-73
2022/10/15 11:53:52;;;;;;;0.30;0.30;;;19.60;98.80;;;;;;4977374;28;20421;-69
2022/10/15 11:56:44;;;;;;;0.40;0.40;;;19.90;98.40;;;;;;5013226;28;20907;-71
2022/10/15 11:59:43;;;;;;;0.40;0.40;;;20.00;96.70;;;;;;5009244;28;20798;-71
2022/10/15 12:02:34;;;;;;;0.43;0.43;;;20.00;96.40;;;;;;5014165;28;20414;-71
2022/10/15 12:05:06;;;;;;;0.40;0.40;;;20.00;96.40;;;;;;5013947;28;20413;-70
2022/10/15 12:07:41;;;;;;;0.40;0.40;;;19.80;96.80;;;;;;5014263;28;20433;-71
2022/10/15 12:10:30;;;;;;;0.40;0.40;;;19.40;96.90;;;;;;5013885;28;20834;-69
2022/10/15 12:13:27;;;;;;;0.53;0.50;;;19.40;98.10;;;;;;5013910;28;20417;-71
2022/10/15 12:16:03;;;;;;;0.30;0.30;;;19.40;97.90;;;;;;5014171;28;20514;-72
2022/10/15 12:19:01;;;;;;;0.40;0.40;;;19.50;97.60;;;;;;5014409;28;20472;-71
2022/10/15 12:21:36;;;;;;;1.00;1.00;;;19.50;98.70;;;;;;4977804;28;20437;-72
2022/10/15 12:24:05;;;;;;;0.40;0.40;;;19.40;97.40;;;;;;5014150;28;20848;-71
2022/10/15 12:26:32;;;;;;;0.30;0.30;;;19.30;98.20;;;;;;5014252;28;20417;-72
2022/10/15 12:29:01;;;;;;;0.40;0.40;;;19.40;98.70;;;;;;5013575;28;20418;-70
2022/10/15 12:31:54;;;;;;;0.30;0.30;;;19.40;98.90;;;;;;5013890;28;20409;-71
2022/10/15 12:34:29;;;;;;;0.30;0.30;;;19.50;97.70;;;;;;5014100;28;20930;-70
2022/10/15 12:37:02;;;;;;;0.33;0.30;;;19.50;98.10;;;;;;5011436;28;21012;-73
2022/10/15 12:39:29;;;;;;;0.40;0.40;;;19.40;97.40;;;;;;5012170;28;20453;-69
2022/10/15 12:41:55;;;;;;;0.53;0.53;;;19.40;97.10;;;;;;5013954;28;20405;-72
2022/10/15 12:44:30;;;;;;;0.30;0.30;;;19.50;98.40;;;;;;5012087;28;20492;-70
2022/10/15 12:46:56;;;;;;;0.63;0.63;;;19.60;98.50;;;;;;5013229;28;20463;-72
2022/10/15 12:49:33;;;;;;;0.40;0.40;;;19.70;98.50;;;;;;5013727;28;20409;-71
2022/10/15 12:52:09;;;;;;;0.30;0.30;;;19.80;97.00;;;;;;5014170;28;20862;-71
2022/10/15 12:54:45;;;;;;;0.40;0.40;;;19.70;96.50;;;;;;5013568;28;20496;-70
2022/10/15 12:57:37;;;;;;;0.57;0.50;;;19.80;96.70;;;;;;5013426;28;20466;-71
2022/10/15 13:00:24;;;;;;;0.77;0.77;;;19.80;96.50;;;;;;4997860;28;20556;-70
2022/10/15 13:02:52;;;;;;;0.30;0.30;;;19.50;96.80;;;;;;5013249;28;20443;-70
2022/10/15 13:05:38;;;;;;;0.40;0.40;;;19.40;96.80;;;;;;5013534;28;20958;-71
2022/10/15 13:08:11;;;;;;;0.30;0.30;;;19.50;97.00;;;;;;5012258;28;20438;-72
2022/10/15 13:10:40;;;;;;;0.60;0.60;;;19.50;98.10;;;;;;5013151;28;20479;-70
2022/10/15 13:13:14;;;;;;;0.30;0.30;;;19.60;99.10;;;;;;5013693;28;20405;-72